Decoded Metar for SASA (SALTA in ARGENTINA) (IATA:SLA) | Meteo·Mobile Aviation Weather
aviador You're here:

SASA Decoded Metar

SALTA in ARGENTINA
Report Time2018-09-19 17:00:00
UTC Time2018-09-19 17:13:57
Flight Rules vfr VFR
Wind090° at 12 kt
W.Decomp.*RWY 06: 9.8 kt HW 6.9 kt RCW
RWY 02: 3.1 kt HW 11.6 kt RCW
W.Rank090° ranks 3
Current wind is above 090° avg. (5.8)
Visibility9999 m
Phenomena:N/A
Clouds:N/A
Expected CloudBase > 8,800 ft AGL from Temp-Dew spread
CeilingNone
Temp28°C (ISA +21)
Dew Point06°C (25% RH)
Heat Index26.9°C
AAT22.8°C
QNH1010 hPa
Density Alt6,601 ft
Elevation3,990 ft
Report Wrong Elevation
Raw Report
SASA 191700Z 09012KT CAVOK 28/06 Q1010=

Extra information for SASA:More info

Metar Taf Metar & Taf Last 4 Metars F.Rules Stats Wind Profile Meteogram Temp Stats Airport Information Weather charts Add Link Nearby VenuesMetar ALERT Operation Metar Decoded Social comments